sensor_id;sensor_type;location;lat;lon;timestamp;P1;durP1;ratioP1;P2;durP2;ratioP2
41739;SDS011;27422;52.444;13.300;2022-09-09T00:02:00;12.15;;;8.50;;
41739;SDS011;27422;52.444;13.300;2022-09-09T00:04:33;9.43;;;7.75;;
41739;SDS011;27422;52.444;13.300;2022-09-09T00:12:29;10.32;;;7.47;;
41739;SDS011;27422;52.444;13.300;2022-09-09T00:15:02;10.65;;;7.93;;
41739;SDS011;27422;52.444;13.300;2022-09-09T00:17:36;10.40;;;7.78;;
41739;SDS011;27422;52.444;13.300;2022-09-09T00:20:14;10.48;;;7.47;;
41739;SDS011;27422;52.444;13.300;2022-09-09T00:25:21;10.68;;;8.07;;
41739;SDS011;27422;52.444;13.300;2022-09-09T00:27:49;10.27;;;7.38;;
41739;SDS011;27422;52.444;13.300;2022-09-09T00:30:19;12.18;;;8.20;;
41739;SDS011;27422;52.444;13.300;2022-09-09T00:32:49;11.73;;;8.02;;
41739;SDS011;27422;52.444;13.300;2022-09-09T00:35:24;11.77;;;7.93;;
41739;SDS011;27422;52.444;13.300;2022-09-09T00:37:51;10.80;;;8.20;;
41739;SDS011;27422;52.444;13.300;2022-09-09T00:40:27;10.90;;;8.23;;
41739;SDS011;27422;52.444;13.300;2022-09-09T00:43:14;11.05;;;8.13;;
41739;SDS011;27422;52.444;13.300;2022-09-09T00:48:17;12.55;;;8.07;;
41739;SDS011;27422;52.444;13.300;2022-09-09T00:50:52;13.63;;;8.77;;
41739;SDS011;27422;52.444;13.300;2022-09-09T00:56:20;10.90;;;8.32;;
41739;SDS011;27422;52.444;13.300;2022-09-09T00:59:06;10.50;;;8.10;;
41739;SDS011;27422;52.444;13.300;2022-09-09T01:01:35;12.73;;;8.40;;
41739;SDS011;27422;52.444;13.300;2022-09-09T01:04:01;10.73;;;8.30;;
41739;SDS011;27422;52.444;13.300;2022-09-09T01:06:34;11.70;;;8.18;;
41739;SDS011;27422;52.444;13.300;2022-09-09T01:11:55;12.32;;;8.80;;
41739;SDS011;27422;52.444;13.300;2022-09-09T01:17:03;12.30;;;8.48;;
41739;SDS011;27422;52.444;13.300;2022-09-09T01:19:43;11.05;;;8.48;;
41739;SDS011;27422;52.444;13.300;2022-09-09T01:27:41;11.25;;;8.35;;
41739;SDS011;27422;52.444;13.300;2022-09-09T01:30:11;11.38;;;8.13;;
41739;SDS011;27422;52.444;13.300;2022-09-09T01:38:16;11.80;;;8.60;;
41739;SDS011;27422;52.444;13.300;2022-09-09T01:40:42;11.00;;;8.07;;
41739;SDS011;27422;52.444;13.300;2022-09-09T01:43:07;10.95;;;8.38;;
41739;SDS011;27422;52.444;13.300;2022-09-09T01:45:33;11.98;;;8.52;;
41739;SDS011;27422;52.444;13.300;2022-09-09T01:47:59;11.57;;;8.30;;
41739;SDS011;27422;52.444;13.300;2022-09-09T01:50:25;11.40;;;8.40;;
41739;SDS011;27422;52.444;13.300;2022-09-09T01:52:54;11.70;;;8.18;;
41739;SDS011;27422;52.444;13.300;2022-09-09T01:55:32;12.73;;;7.93;;
41739;SDS011;27422;52.444;13.300;2022-09-09T01:58:07;12.05;;;8.20;;
41739;SDS011;27422;52.444;13.300;2022-09-09T02:00:37;11.73;;;8.43;;
41739;SDS011;27422;52.444;13.300;2022-09-09T02:03:17;11.38;;;7.82;;
41739;SDS011;27422;52.444;13.300;2022-09-09T02:05:52;12.57;;;8.85;;
41739;SDS011;27422;52.444;13.300;2022-09-09T02:08:28;11.90;;;7.70;;
41739;SDS011;27422;52.444;13.300;2022-09-09T02:11:01;12.93;;;8.13;;
41739;SDS011;27422;52.444;13.300;2022-09-09T02:13:28;11.48;;;8.15;;
41739;SDS011;27422;52.444;13.300;2022-09-09T02:16:13;12.27;;;8.48;;
41739;SDS011;27422;52.444;13.300;2022-09-09T02:21:22;10.95;;;7.75;;
41739;SDS011;27422;52.444;13.300;2022-09-09T02:23:48;10.77;;;7.80;;
41739;SDS011;27422;52.444;13.300;2022-09-09T02:26:17;13.00;;;8.23;;
41739;SDS011;27422;52.444;13.300;2022-09-09T02:28:47;12.10;;;8.05;;
41739;SDS011;27422;52.444;13.300;2022-09-09T02:31:15;11.23;;;8.30;;
41739;SDS011;27422;52.444;13.300;2022-09-09T02:33:44;11.68;;;8.25;;
41739;SDS011;27422;52.444;13.300;2022-09-09T02:36:13;14.15;;;7.70;;
41739;SDS011;27422;52.444;13.300;2022-09-09T02:38:47;11.70;;;7.75;;
41739;SDS011;27422;52.444;13.300;2022-09-09T02:41:20;12.80;;;8.02;;
41739;SDS011;27422;52.444;13.300;2022-09-09T02:43:51;12.25;;;8.00;;
41739;SDS011;27422;52.444;13.300;2022-09-09T02:46:25;10.82;;;7.50;;
41739;SDS011;27422;52.444;13.300;2022-09-09T02:49:02;12.10;;;8.27;;
41739;SDS011;27422;52.444;13.300;2022-09-09T02:51:44;14.45;;;8.70;;
41739;SDS011;27422;52.444;13.300;2022-09-09T02:54:20;12.93;;;8.02;;
41739;SDS011;27422;52.444;13.300;2022-09-09T02:56:52;12.27;;;7.55;;
41739;SDS011;27422;52.444;13.300;2022-09-09T02:59:21;13.20;;;8.45;;
41739;SDS011;27422;52.444;13.300;2022-09-09T03:01:47;12.55;;;7.53;;
41739;SDS011;27422;52.444;13.300;2022-09-09T03:04:13;12.10;;;8.27;;
41739;SDS011;27422;52.444;13.300;2022-09-09T03:06:39;13.18;;;7.95;;
41739;SDS011;27422;52.444;13.300;2022-09-09T03:09:04;10.95;;;7.40;;
41739;SDS011;27422;52.444;13.300;2022-09-09T03:11:30;11.02;;;7.88;;
41739;SDS011;27422;52.444;13.300;2022-09-09T03:13:56;11.57;;;7.95;;
41739;SDS011;27422;52.444;13.300;2022-09-09T03:16:24;13.88;;;8.13;;
41739;SDS011;27422;52.444;13.300;2022-09-09T03:18:49;12.05;;;8.07;;
41739;SDS011;27422;52.444;13.300;2022-09-09T03:21:14;13.15;;;8.32;;
41739;SDS011;27422;52.444;13.300;2022-09-09T03:23:40;11.43;;;8.10;;
41739;SDS011;27422;52.444;13.300;2022-09-09T03:26:05;11.75;;;7.68;;
41739;SDS011;27422;52.444;13.300;2022-09-09T03:31:02;12.88;;;8.70;;
41739;SDS011;27422;52.444;13.300;2022-09-09T03:33:29;13.45;;;7.75;;
41739;SDS011;27422;52.444;13.300;2022-09-09T03:35:55;11.27;;;8.18;;
41739;SDS011;27422;52.444;13.300;2022-09-09T03:38:22;10.80;;;7.80;;
41739;SDS011;27422;52.444;13.300;2022-09-09T03:40:54;13.50;;;8.10;;
41739;SDS011;27422;52.444;13.300;2022-09-09T03:43:23;10.38;;;7.72;;
41739;SDS011;27422;52.444;13.300;2022-09-09T03:45:51;10.93;;;7.63;;
41739;SDS011;27422;52.444;13.300;2022-09-09T03:48:17;10.73;;;8.07;;
41739;SDS011;27422;52.444;13.300;2022-09-09T03:50:46;11.93;;;7.72;;
41739;SDS011;27422;52.444;13.300;2022-09-09T03:53:13;12.30;;;7.43;;
41739;SDS011;27422;52.444;13.300;2022-09-09T03:55:39;13.50;;;8.03;;
41739;SDS011;27422;52.444;13.300;2022-09-09T03:58:06;12.27;;;7.50;;
41739;SDS011;27422;52.444;13.300;2022-09-09T04:00:32;12.20;;;7.75;;
41739;SDS011;27422;52.444;13.300;2022-09-09T04:02:58;12.60;;;8.25;;
41739;SDS011;27422;52.444;13.300;2022-09-09T04:05:23;11.23;;;7.45;;
41739;SDS011;27422;52.444;13.300;2022-09-09T04:07:49;10.18;;;7.40;;
41739;SDS011;27422;52.444;13.300;2022-09-09T04:10:16;11.63;;;7.47;;
41739;SDS011;27422;52.444;13.300;2022-09-09T04:12:44;12.35;;;7.40;;
41739;SDS011;27422;52.444;13.300;2022-09-09T04:15:09;17.17;;;8.32;;
41739;SDS011;27422;52.444;13.300;2022-09-09T04:17:35;13.90;;;7.10;;
41739;SDS011;27422;52.444;13.300;2022-09-09T04:20:01;11.38;;;7.72;;
41739;SDS011;27422;52.444;13.300;2022-09-09T04:22:27;11.02;;;7.18;;
41739;SDS011;27422;52.444;13.300;2022-09-09T04:24:53;10.65;;;7.72;;
41739;SDS011;27422;52.444;13.300;2022-09-09T04:27:18;10.15;;;7.47;;
41739;SDS011;27422;52.444;13.300;2022-09-09T04:29:43;9.38;;;6.97;;
41739;SDS011;27422;52.444;13.300;2022-09-09T04:32:09;12.00;;;7.70;;
41739;SDS011;27422;52.444;13.300;2022-09-09T04:34:37;11.27;;;8.02;;
41739;SDS011;27422;52.444;13.300;2022-09-09T04:37:03;9.82;;;7.18;;
41739;SDS011;27422;52.444;13.300;2022-09-09T04:39:28;10.55;;;7.63;;
41739;SDS011;27422;52.444;13.300;2022-09-09T04:41:53;12.15;;;7.53;;
41739;SDS011;27422;52.444;13.300;2022-09-09T04:44:19;12.20;;;7.40;;
41739;SDS011;27422;52.444;13.300;2022-09-09T04:46:45;13.30;;;7.65;;
41739;SDS011;27422;52.444;13.300;2022-09-09T04:49:10;10.35;;;7.65;;
41739;SDS011;27422;52.444;13.300;2022-09-09T04:51:35;10.63;;;7.55;;
41739;SDS011;27422;52.444;13.300;2022-09-09T04:54:01;13.13;;;7.60;;
41739;SDS011;27422;52.444;13.300;2022-09-09T04:56:26;11.30;;;7.65;;
41739;SDS011;27422;52.444;13.300;2022-09-09T04:58:54;12.00;;;7.60;;
41739;SDS011;27422;52.444;13.300;2022-09-09T05:01:20;11.05;;;7.47;;
41739;SDS011;27422;52.444;13.300;2022-09-09T05:03:47;11.75;;;6.80;;
41739;SDS011;27422;52.444;13.300;2022-09-09T05:06:16;10.88;;;7.30;;
41739;SDS011;27422;52.444;13.300;2022-09-09T05:08:43;12.13;;;7.05;;
41739;SDS011;27422;52.444;13.300;2022-09-09T05:11:28;11.10;;;6.68;;
41739;SDS011;27422;52.444;13.300;2022-09-09T05:13:55;10.25;;;7.30;;
41739;SDS011;27422;52.444;13.300;2022-09-09T05:16:22;11.43;;;7.93;;
41739;SDS011;27422;52.444;13.300;2022-09-09T05:18:48;12.48;;;7.43;;
41739;SDS011;27422;52.444;13.300;2022-09-09T05:21:15;10.18;;;7.13;;
41739;SDS011;27422;52.444;13.300;2022-09-09T05:23:41;10.57;;;6.00;;
41739;SDS011;27422;52.444;13.300;2022-09-09T05:26:08;9.27;;;6.35;;
41739;SDS011;27422;52.444;13.300;2022-09-09T05:28:38;11.32;;;6.78;;
41739;SDS011;27422;52.444;13.300;2022-09-09T05:31:05;9.23;;;6.20;;
41739;SDS011;27422;52.444;13.300;2022-09-09T05:33:33;10.43;;;6.03;;
41739;SDS011;27422;52.444;13.300;2022-09-09T05:36:00;10.98;;;5.97;;
41739;SDS011;27422;52.444;13.300;2022-09-09T05:38:27;8.02;;;6.30;;
41739;SDS011;27422;52.444;13.300;2022-09-09T05:40:54;11.50;;;6.40;;
41739;SDS011;27422;52.444;13.300;2022-09-09T05:43:21;9.95;;;6.22;;
41739;SDS011;27422;52.444;13.300;2022-09-09T05:45:58;13.20;;;7.00;;
41739;SDS011;27422;52.444;13.300;2022-09-09T05:48:29;9.00;;;5.72;;
41739;SDS011;27422;52.444;13.300;2022-09-09T05:50:55;8.68;;;5.15;;
41739;SDS011;27422;52.444;13.300;2022-09-09T05:53:21;8.75;;;5.43;;
41739;SDS011;27422;52.444;13.300;2022-09-09T05:55:46;9.35;;;5.93;;
41739;SDS011;27422;52.444;13.300;2022-09-09T05:58:12;8.40;;;5.13;;
41739;SDS011;27422;52.444;13.300;2022-09-09T06:00:39;7.35;;;5.45;;
41739;SDS011;27422;52.444;13.300;2022-09-09T06:03:04;10.77;;;5.10;;
41739;SDS011;27422;52.444;13.300;2022-09-09T06:05:30;8.68;;;5.82;;
41739;SDS011;27422;52.444;13.300;2022-09-09T06:07:55;8.13;;;5.45;;
41739;SDS011;27422;52.444;13.300;2022-09-09T06:10:22;6.82;;;4.68;;
41739;SDS011;27422;52.444;13.300;2022-09-09T06:12:47;6.85;;;4.72;;
41739;SDS011;27422;52.444;13.300;2022-09-09T06:15:13;7.07;;;4.97;;
41739;SDS011;27422;52.444;13.300;2022-09-09T06:17:38;6.38;;;4.35;;
41739;SDS011;27422;52.444;13.300;2022-09-09T06:20:04;8.68;;;4.25;;
41739;SDS011;27422;52.444;13.300;2022-09-09T06:22:29;5.93;;;4.10;;
41739;SDS011;27422;52.444;13.300;2022-09-09T06:24:55;9.77;;;4.20;;
41739;SDS011;27422;52.444;13.300;2022-09-09T06:27:20;10.82;;;3.92;;
41739;SDS011;27422;52.444;13.300;2022-09-09T06:29:46;7.57;;;3.90;;
41739;SDS011;27422;52.444;13.300;2022-09-09T06:32:11;5.57;;;3.50;;
41739;SDS011;27422;52.444;13.300;2022-09-09T06:34:36;5.90;;;2.88;;
41739;SDS011;27422;52.444;13.300;2022-09-09T06:37:02;4.55;;;3.00;;
41739;SDS011;27422;52.444;13.300;2022-09-09T06:39:27;6.97;;;2.80;;
41739;SDS011;27422;52.444;13.300;2022-09-09T06:41:53;6.07;;;2.70;;
41739;SDS011;27422;52.444;13.300;2022-09-09T06:44:18;6.05;;;2.90;;
41739;SDS011;27422;52.444;13.300;2022-09-09T06:46:44;6.65;;;2.80;;
41739;SDS011;27422;52.444;13.300;2022-09-09T06:49:12;8.18;;;2.80;;
41739;SDS011;27422;52.444;13.300;2022-09-09T06:51:38;5.93;;;2.92;;
41739;SDS011;27422;52.444;13.300;2022-09-09T06:54:07;5.05;;;2.70;;
41739;SDS011;27422;52.444;13.300;2022-09-09T06:56:35;5.97;;;2.40;;
41739;SDS011;27422;52.444;13.300;2022-09-09T06:59:05;5.47;;;2.55;;
41739;SDS011;27422;52.444;13.300;2022-09-09T07:01:34;8.98;;;2.20;;
41739;SDS011;27422;52.444;13.300;2022-09-09T07:04:01;3.17;;;1.80;;
41739;SDS011;27422;52.444;13.300;2022-09-09T07:06:28;7.88;;;2.30;;
41739;SDS011;27422;52.444;13.300;2022-09-09T07:08:56;6.10;;;1.90;;
41739;SDS011;27422;52.444;13.300;2022-09-09T07:11:25;8.35;;;2.72;;
41739;SDS011;27422;52.444;13.300;2022-09-09T07:13:52;4.28;;;1.65;;
41739;SDS011;27422;52.444;13.300;2022-09-09T07:16:18;7.65;;;1.73;;
41739;SDS011;27422;52.444;13.300;2022-09-09T07:18:45;4.45;;;1.83;;
41739;SDS011;27422;52.444;13.300;2022-09-09T07:21:11;4.35;;;1.48;;
41739;SDS011;27422;52.444;13.300;2022-09-09T07:23:37;4.53;;;1.80;;
41739;SDS011;27422;52.444;13.300;2022-09-09T07:26:07;6.80;;;1.95;;
41739;SDS011;27422;52.444;13.300;2022-09-09T07:28:34;2.50;;;1.10;;
41739;SDS011;27422;52.444;13.300;2022-09-09T07:31:00;4.47;;;1.40;;
41739;SDS011;27422;52.444;13.300;2022-09-09T07:33:28;4.45;;;1.15;;
41739;SDS011;27422;52.444;13.300;2022-09-09T07:36:01;3.97;;;1.30;;
41739;SDS011;27422;52.444;13.300;2022-09-09T07:38:28;3.33;;;1.17;;
41739;SDS011;27422;52.444;13.300;2022-09-09T07:40:54;6.45;;;1.40;;
41739;SDS011;27422;52.444;13.300;2022-09-09T07:43:28;6.43;;;2.10;;
41739;SDS011;27422;52.444;13.300;2022-09-09T07:45:59;6.65;;;1.92;;
41739;SDS011;27422;52.444;13.300;2022-09-09T07:48:26;7.32;;;2.17;;
41739;SDS011;27422;52.444;13.300;2022-09-09T07:50:52;5.28;;;1.58;;
41739;SDS011;27422;52.444;13.300;2022-09-09T07:53:17;4.68;;;1.27;;
41739;SDS011;27422;52.444;13.300;2022-09-09T07:55:44;3.70;;;1.00;;
41739;SDS011;27422;52.444;13.300;2022-09-09T07:58:10;6.05;;;1.48;;
41739;SDS011;27422;52.444;13.300;2022-09-09T08:00:35;3.78;;;1.30;;
41739;SDS011;27422;52.444;13.300;2022-09-09T08:03:01;3.17;;;0.98;;
41739;SDS011;27422;52.444;13.300;2022-09-09T08:05:26;3.55;;;1.30;;
41739;SDS011;27422;52.444;13.300;2022-09-09T08:07:52;2.88;;;1.00;;
41739;SDS011;27422;52.444;13.300;2022-09-09T08:10:17;3.75;;;1.20;;
41739;SDS011;27422;52.444;13.300;2022-09-09T08:12:43;3.22;;;1.15;;
41739;SDS011;27422;52.444;13.300;2022-09-09T08:15:08;5.15;;;1.25;;
41739;SDS011;27422;52.444;13.300;2022-09-09T08:17:55;5.03;;;1.40;;
41739;SDS011;27422;52.444;13.300;2022-09-09T08:20:21;4.70;;;1.27;;
41739;SDS011;27422;52.444;13.300;2022-09-09T08:22:48;5.53;;;1.33;;
41739;SDS011;27422;52.444;13.300;2022-09-09T08:25:14;3.03;;;1.15;;
41739;SDS011;27422;52.444;13.300;2022-09-09T08:27:40;3.60;;;1.52;;
41739;SDS011;27422;52.444;13.300;2022-09-09T08:30:05;3.03;;;1.10;;
41739;SDS011;27422;52.444;13.300;2022-09-09T08:32:38;4.70;;;1.08;;
41739;SDS011;27422;52.444;13.300;2022-09-09T08:35:03;4.10;;;1.50;;
41739;SDS011;27422;52.444;13.300;2022-09-09T08:37:29;3.25;;;1.27;;
41739;SDS011;27422;52.444;13.300;2022-09-09T08:39:54;4.70;;;1.17;;
41739;SDS011;27422;52.444;13.300;2022-09-09T08:45:19;4.07;;;1.20;;
41739;SDS011;27422;52.444;13.300;2022-09-09T08:47:52;3.80;;;1.00;;
41739;SDS011;27422;52.444;13.300;2022-09-09T08:50:29;4.53;;;1.20;;
41739;SDS011;27422;52.444;13.300;2022-09-09T08:58:20;5.35;;;1.08;;
41739;SDS011;27422;52.444;13.300;2022-09-09T09:03:16;3.10;;;0.90;;
41739;SDS011;27422;52.444;13.300;2022-09-09T09:08:24;5.82;;;0.95;;
41739;SDS011;27422;52.444;13.300;2022-09-09T09:10:53;6.22;;;1.10;;
41739;SDS011;27422;52.444;13.300;2022-09-09T09:18:54;2.67;;;0.70;;
41739;SDS011;27422;52.444;13.300;2022-09-09T09:21:30;3.38;;;0.77;;
41739;SDS011;27422;52.444;13.300;2022-09-09T09:24:02;3.78;;;0.65;;
41739;SDS011;27422;52.444;13.300;2022-09-09T09:26:34;3.38;;;0.95;;
41739;SDS011;27422;52.444;13.300;2022-09-09T09:29:03;2.97;;;0.50;;
41739;SDS011;27422;52.444;13.300;2022-09-09T09:31:36;3.30;;;0.60;;
41739;SDS011;27422;52.444;13.300;2022-09-09T09:34:02;2.58;;;0.60;;
41739;SDS011;27422;52.444;13.300;2022-09-09T09:36:43;3.50;;;0.68;;
41739;SDS011;27422;52.444;13.300;2022-09-09T09:39:22;4.22;;;0.75;;
41739;SDS011;27422;52.444;13.300;2022-09-09T09:41:54;2.90;;;0.70;;
41739;SDS011;27422;52.444;13.300;2022-09-09T09:46:45;2.47;;;0.50;;
41739;SDS011;27422;52.444;13.300;2022-09-09T09:49:11;2.78;;;0.65;;
41739;SDS011;27422;52.444;13.300;2022-09-09T09:51:38;2.13;;;0.60;;
41739;SDS011;27422;52.444;13.300;2022-09-09T09:56:44;3.35;;;0.60;;
41739;SDS011;27422;52.444;13.300;2022-09-09T10:01:53;3.40;;;0.70;;
41739;SDS011;27422;52.444;13.300;2022-09-09T10:04:20;2.45;;;0.60;;
41739;SDS011;27422;52.444;13.300;2022-09-09T10:06:48;5.18;;;0.88;;
41739;SDS011;27422;52.444;13.300;2022-09-09T10:09:21;2.65;;;0.63;;
41739;SDS011;27422;52.444;13.300;2022-09-09T10:14:38;4.97;;;0.80;;
41739;SDS011;27422;52.444;13.300;2022-09-09T10:17:34;2.97;;;0.70;;
41739;SDS011;27422;52.444;13.300;2022-09-09T10:23:03;4.38;;;0.77;;
41739;SDS011;27422;52.444;13.300;2022-09-09T10:25:59;3.03;;;0.70;;
41739;SDS011;27422;52.444;13.300;2022-09-09T10:31:39;3.45;;;0.80;;
41739;SDS011;27422;52.444;13.300;2022-09-09T10:36:49;2.05;;;0.52;;
41739;SDS011;27422;52.444;13.300;2022-09-09T10:55:18;2.85;;;0.50;;
41739;SDS011;27422;52.444;13.300;2022-09-09T10:57:45;4.72;;;0.98;;
41739;SDS011;27422;52.444;13.300;2022-09-09T11:00:22;2.42;;;0.50;;
41739;SDS011;27422;52.444;13.300;2022-09-09T11:05:35;1.20;;;0.30;;
41739;SDS011;27422;52.444;13.300;2022-09-09T11:08:17;2.08;;;0.57;;
41739;SDS011;27422;52.444;13.300;2022-09-09T11:19:04;2.85;;;0.43;;
41739;SDS011;27422;52.444;13.300;2022-09-09T11:21:40;3.10;;;0.40;;
41739;SDS011;27422;52.444;13.300;2022-09-09T11:24:13;3.00;;;0.55;;
41739;SDS011;27422;52.444;13.300;2022-09-09T11:26:47;1.90;;;0.30;;
41739;SDS011;27422;52.444;13.300;2022-09-09T11:35:21;2.42;;;0.40;;
41739;SDS011;27422;52.444;13.300;2022-09-09T11:45:42;3.30;;;0.50;;
41739;SDS011;27422;52.444;13.300;2022-09-09T11:51:24;1.23;;;0.30;;
41739;SDS011;27422;52.444;13.300;2022-09-09T11:56:32;1.65;;;0.43;;
41739;SDS011;27422;52.444;13.300;2022-09-09T12:01:42;3.03;;;0.68;;
41739;SDS011;27422;52.444;13.300;2022-09-09T12:06:52;2.95;;;0.60;;
41739;SDS011;27422;52.444;13.300;2022-09-09T12:19:39;1.85;;;0.68;;
41739;SDS011;27422;52.444;13.300;2022-09-09T12:22:07;3.20;;;0.55;;
41739;SDS011;27422;52.444;13.300;2022-09-09T12:24:36;2.38;;;0.40;;
41739;SDS011;27422;52.444;13.300;2022-09-09T12:29:47;2.05;;;0.40;;
41739;SDS011;27422;52.444;13.300;2022-09-09T12:32:20;2.47;;;0.40;;
41739;SDS011;27422;52.444;13.300;2022-09-09T12:37:53;3.60;;;0.47;;
41739;SDS011;27422;52.444;13.300;2022-09-09T12:40:25;3.08;;;0.50;;
41739;SDS011;27422;52.444;13.300;2022-09-09T12:42:52;4.80;;;0.85;;
41739;SDS011;27422;52.444;13.300;2022-09-09T12:50:37;5.30;;;0.80;;
41739;SDS011;27422;52.444;13.300;2022-09-09T12:53:10;2.22;;;0.40;;
41739;SDS011;27422;52.444;13.300;2022-09-09T12:55:48;2.08;;;0.50;;
41739;SDS011;27422;52.444;13.300;2022-09-09T12:58:15;3.72;;;0.68;;
41739;SDS011;27422;52.444;13.300;2022-09-09T13:00:48;1.60;;;0.55;;
41739;SDS011;27422;52.444;13.300;2022-09-09T13:03:17;3.42;;;0.45;;
41739;SDS011;27422;52.444;13.300;2022-09-09T13:05:45;2.25;;;0.40;;
41739;SDS011;27422;52.444;13.300;2022-09-09T13:08:12;2.27;;;0.60;;
41739;SDS011;27422;52.444;13.300;2022-09-09T13:10:52;3.80;;;0.50;;
41739;SDS011;27422;52.444;13.300;2022-09-09T13:13:29;2.58;;;0.70;;
41739;SDS011;27422;52.444;13.300;2022-09-09T13:16:01;4.10;;;0.80;;
41739;SDS011;27422;52.444;13.300;2022-09-09T13:18:31;1.73;;;0.40;;
41739;SDS011;27422;52.444;13.300;2022-09-09T13:20:58;3.03;;;0.57;;
41739;SDS011;27422;52.444;13.300;2022-09-09T13:23:26;3.25;;;0.60;;
41739;SDS011;27422;52.444;13.300;2022-09-09T13:25:55;4.93;;;0.60;;
41739;SDS011;27422;52.444;13.300;2022-09-09T13:28:21;4.65;;;0.65;;
41739;SDS011;27422;52.444;13.300;2022-09-09T13:30:56;3.67;;;0.75;;
41739;SDS011;27422;52.444;13.300;2022-09-09T13:33:30;2.67;;;0.60;;
41739;SDS011;27422;52.444;13.300;2022-09-09T13:36:02;2.75;;;0.60;;
41739;SDS011;27422;52.444;13.300;2022-09-09T13:38:31;3.75;;;0.70;;
41739;SDS011;27422;52.444;13.300;2022-09-09T13:41:04;2.05;;;0.60;;
41739;SDS011;27422;52.444;13.300;2022-09-09T13:43:43;3.58;;;0.82;;
41739;SDS011;27422;52.444;13.300;2022-09-09T13:51:38;3.40;;;0.70;;
41739;SDS011;27422;52.444;13.300;2022-09-09T13:54:06;2.58;;;0.70;;
41739;SDS011;27422;52.444;13.300;2022-09-09T13:56:35;2.90;;;0.70;;
41739;SDS011;27422;52.444;13.300;2022-09-09T13:59:03;3.72;;;0.70;;
41739;SDS011;27422;52.444;13.300;2022-09-09T14:01:29;2.33;;;0.40;;
41739;SDS011;27422;52.444;13.300;2022-09-09T14:03:55;3.97;;;0.68;;
41739;SDS011;27422;52.444;13.300;2022-09-09T14:06:24;4.53;;;0.75;;
41739;SDS011;27422;52.444;13.300;2022-09-09T14:08:49;4.07;;;0.90;;
41739;SDS011;27422;52.444;13.300;2022-09-09T14:11:17;2.75;;;0.70;;
41739;SDS011;27422;52.444;13.300;2022-09-09T14:16:08;2.40;;;0.50;;
41739;SDS011;27422;52.444;13.300;2022-09-09T14:18:35;2.60;;;0.50;;
41739;SDS011;27422;52.444;13.300;2022-09-09T14:21:03;3.33;;;0.65;;
41739;SDS011;27422;52.444;13.300;2022-09-09T14:23:28;2.67;;;0.68;;
41739;SDS011;27422;52.444;13.300;2022-09-09T14:25:54;4.50;;;0.80;;
41739;SDS011;27422;52.444;13.300;2022-09-09T14:28:20;3.17;;;0.60;;
41739;SDS011;27422;52.444;13.300;2022-09-09T14:30:46;2.58;;;0.63;;
41739;SDS011;27422;52.444;13.300;2022-09-09T14:33:13;2.95;;;0.60;;
41739;SDS011;27422;52.444;13.300;2022-09-09T14:35:41;3.05;;;0.60;;
41739;SDS011;27422;52.444;13.300;2022-09-09T14:38:09;3.15;;;0.75;;
41739;SDS011;27422;52.444;13.300;2022-09-09T14:40:36;3.38;;;0.60;;
41739;SDS011;27422;52.444;13.300;2022-09-09T14:43:02;2.22;;;0.60;;
41739;SDS011;27422;52.444;13.300;2022-09-09T14:45:28;4.78;;;0.70;;
41739;SDS011;27422;52.444;13.300;2022-09-09T14:47:53;3.38;;;0.85;;
41739;SDS011;27422;52.444;13.300;2022-09-09T14:50:20;1.88;;;0.70;;
41739;SDS011;27422;52.444;13.300;2022-09-09T14:52:47;2.17;;;0.60;;
41739;SDS011;27422;52.444;13.300;2022-09-09T14:55:12;2.17;;;0.60;;
41739;SDS011;27422;52.444;13.300;2022-09-09T15:00:06;3.90;;;0.70;;
41739;SDS011;27422;52.444;13.300;2022-09-09T15:02:34;3.22;;;0.60;;
41739;SDS011;27422;52.444;13.300;2022-09-09T15:04:59;2.42;;;0.52;;
41739;SDS011;27422;52.444;13.300;2022-09-09T15:07:25;3.00;;;0.70;;
41739;SDS011;27422;52.444;13.300;2022-09-09T15:09:53;2.63;;;0.40;;
41739;SDS011;27422;52.444;13.300;2022-09-09T15:12:19;1.33;;;0.35;;
41739;SDS011;27422;52.444;13.300;2022-09-09T15:14:45;3.40;;;0.60;;
41739;SDS011;27422;52.444;13.300;2022-09-09T15:17:11;2.38;;;0.60;;
41739;SDS011;27422;52.444;13.300;2022-09-09T15:19:37;1.40;;;0.47;;
41739;SDS011;27422;52.444;13.300;2022-09-09T15:22:03;2.05;;;0.47;;
41739;SDS011;27422;52.444;13.300;2022-09-09T15:26:56;3.45;;;0.50;;
41739;SDS011;27422;52.444;13.300;2022-09-09T15:29:22;3.10;;;0.60;;
41739;SDS011;27422;52.444;13.300;2022-09-09T15:31:48;1.55;;;0.50;;
41739;SDS011;27422;52.444;13.300;2022-09-09T15:34:13;2.13;;;0.63;;
41739;SDS011;27422;52.444;13.300;2022-09-09T15:36:41;3.13;;;0.70;;
41739;SDS011;27422;52.444;13.300;2022-09-09T15:39:09;3.13;;;0.70;;
41739;SDS011;27422;52.444;13.300;2022-09-09T15:41:41;2.88;;;0.60;;
41739;SDS011;27422;52.444;13.300;2022-09-09T15:44:07;2.58;;;0.60;;
41739;SDS011;27422;52.444;13.300;2022-09-09T15:51:31;3.15;;;0.60;;
41739;SDS011;27422;52.444;13.300;2022-09-09T15:53:57;3.33;;;0.70;;
41739;SDS011;27422;52.444;13.300;2022-09-09T15:56:25;1.95;;;0.50;;
41739;SDS011;27422;52.444;13.300;2022-09-09T15:58:52;1.70;;;0.60;;
41739;SDS011;27422;52.444;13.300;2022-09-09T16:01:18;3.47;;;0.70;;
41739;SDS011;27422;52.444;13.300;2022-09-09T16:03:44;5.15;;;0.70;;
41739;SDS011;27422;52.444;13.300;2022-09-09T16:06:11;2.60;;;0.60;;
41739;SDS011;27422;52.444;13.300;2022-09-09T16:08:41;3.58;;;0.80;;
41739;SDS011;27422;52.444;13.300;2022-09-09T16:11:12;2.97;;;0.43;;
41739;SDS011;27422;52.444;13.300;2022-09-09T16:13:40;2.80;;;0.60;;
41739;SDS011;27422;52.444;13.300;2022-09-09T16:16:07;4.25;;;0.68;;
41739;SDS011;27422;52.444;13.300;2022-09-09T16:21:01;1.30;;;0.40;;
41739;SDS011;27422;52.444;13.300;2022-09-09T16:23:26;3.45;;;0.68;;
41739;SDS011;27422;52.444;13.300;2022-09-09T16:25:53;2.03;;;0.50;;
41739;SDS011;27422;52.444;13.300;2022-09-09T16:28:19;1.90;;;0.45;;
41739;SDS011;27422;52.444;13.300;2022-09-09T16:30:46;4.03;;;0.75;;
41739;SDS011;27422;52.444;13.300;2022-09-09T16:33:11;2.10;;;0.50;;
41739;SDS011;27422;52.444;13.300;2022-09-09T16:38:05;3.20;;;0.70;;
41739;SDS011;27422;52.444;13.300;2022-09-09T16:40:35;3.92;;;0.70;;
41739;SDS011;27422;52.444;13.300;2022-09-09T16:43:04;2.75;;;0.60;;
41739;SDS011;27422;52.444;13.300;2022-09-09T16:45:31;2.40;;;0.70;;
41739;SDS011;27422;52.444;13.300;2022-09-09T16:47:57;2.47;;;0.75;;
41739;SDS011;27422;52.444;13.300;2022-09-09T16:50:23;2.80;;;0.43;;
41739;SDS011;27422;52.444;13.300;2022-09-09T16:52:48;4.57;;;1.10;;
41739;SDS011;27422;52.444;13.300;2022-09-09T16:55:14;3.33;;;0.60;;
41739;SDS011;27422;52.444;13.300;2022-09-09T16:57:40;2.85;;;0.77;;
41739;SDS011;27422;52.444;13.300;2022-09-09T17:00:07;2.72;;;0.60;;
41739;SDS011;27422;52.444;13.300;2022-09-09T17:02:33;3.65;;;1.02;;
41739;SDS011;27422;52.444;13.300;2022-09-09T17:04:58;3.03;;;0.88;;
41739;SDS011;27422;52.444;13.300;2022-09-09T17:07:24;4.80;;;1.00;;
41739;SDS011;27422;52.444;13.300;2022-09-09T17:09:50;3.03;;;0.70;;
41739;SDS011;27422;52.444;13.300;2022-09-09T17:12:15;4.40;;;0.85;;
41739;SDS011;27422;52.444;13.300;2022-09-09T17:14:41;2.60;;;0.70;;
41739;SDS011;27422;52.444;13.300;2022-09-09T17:17:07;3.63;;;1.15;;
41739;SDS011;27422;52.444;13.300;2022-09-09T17:19:32;2.72;;;0.80;;
41739;SDS011;27422;52.444;13.300;2022-09-09T17:21:58;3.95;;;1.20;;
41739;SDS011;27422;52.444;13.300;2022-09-09T17:24:23;3.90;;;1.00;;
41739;SDS011;27422;52.444;13.300;2022-09-09T17:26:51;4.70;;;0.80;;
41739;SDS011;27422;52.444;13.300;2022-09-09T17:29:17;3.35;;;0.57;;